sensor_id;sensor_type;location;lat;lon;timestamp;pressure;altitude;pressure_sealevel;temperature;humidity
71126;BME280;58785;55.566;38.058;2023-02-21T00:00:23;98087.19;;;-7.32;64.53
71126;BME280;58785;55.566;38.058;2023-02-21T00:03:07;98078.13;;;-7.39;64.12
71126;BME280;58785;55.566;38.058;2023-02-21T00:05:52;98076.59;;;-7.43;65.14
71126;BME280;58785;55.566;38.058;2023-02-21T00:08:37;98082.88;;;-7.47;64.94
71126;BME280;58785;55.566;38.058;2023-02-21T00:11:21;98088.47;;;-7.55;65.34
71126;BME280;58785;55.566;38.058;2023-02-21T00:14:05;98084.22;;;-7.56;65.13
71126;BME280;58785;55.566;38.058;2023-02-21T00:16:50;98069.22;;;-7.65;65.42
71126;BME280;58785;55.566;38.058;2023-02-21T00:19:34;98061.63;;;-7.68;64.50
71126;BME280;58785;55.566;38.058;2023-02-21T00:22:18;98086.31;;;-7.62;64.89
71126;BME280;58785;55.566;38.058;2023-02-21T00:25:02;98070.63;;;-7.75;64.89
71126;BME280;58785;55.566;38.058;2023-02-21T00:27:46;98069.38;;;-7.84;64.96
71126;BME280;58785;55.566;38.058;2023-02-21T00:30:30;98078.25;;;-7.88;65.52
71126;BME280;58785;55.566;38.058;2023-02-21T00:33:15;98067.03;;;-8.04;64.94
71126;BME280;58785;55.566;38.058;2023-02-21T00:35:59;98074.56;;;-7.99;65.49
71126;BME280;58785;55.566;38.058;2023-02-21T00:38:43;98072.72;;;-7.97;65.32
71126;BME280;58785;55.566;38.058;2023-02-21T00:41:27;98073.25;;;-7.91;65.07
71126;BME280;58785;55.566;38.058;2023-02-21T00:44:12;98058.78;;;-7.95;65.32
71126;BME280;58785;55.566;38.058;2023-02-21T00:46:56;98067.47;;;-7.96;64.45
71126;BME280;58785;55.566;38.058;2023-02-21T00:49:41;98035.53;;;-8.11;65.37
71126;BME280;58785;55.566;38.058;2023-02-21T00:52:25;98051.19;;;-8.14;64.62
71126;BME280;58785;55.566;38.058;2023-02-21T00:55:09;98038.84;;;-8.24;65.63
71126;BME280;58785;55.566;38.058;2023-02-21T00:57:53;98044.84;;;-8.24;65.20
71126;BME280;58785;55.566;38.058;2023-02-21T01:00:38;98046.50;;;-8.23;64.92
71126;BME280;58785;55.566;38.058;2023-02-21T01:03:21;98018.97;;;-8.38;65.42
71126;BME280;58785;55.566;38.058;2023-02-21T01:06:11;98023.81;;;-8.33;65.67
71126;BME280;58785;55.566;38.058;2023-02-21T01:08:55;98027.63;;;-8.39;65.19
71126;BME280;58785;55.566;38.058;2023-02-21T01:11:39;98016.47;;;-8.39;65.06
71126;BME280;58785;55.566;38.058;2023-02-21T01:14:23;98009.03;;;-8.46;65.38
71126;BME280;58785;55.566;38.058;2023-02-21T01:17:08;98008.59;;;-8.54;65.10
71126;BME280;58785;55.566;38.058;2023-02-21T01:19:52;98009.50;;;-8.55;65.19
71126;BME280;58785;55.566;38.058;2023-02-21T01:22:36;98013.09;;;-8.57;65.00
71126;BME280;58785;55.566;38.058;2023-02-21T01:25:20;98006.09;;;-8.55;64.96
71126;BME280;58785;55.566;38.058;2023-02-21T01:28:04;98004.16;;;-8.52;65.39
71126;BME280;58785;55.566;38.058;2023-02-21T01:30:48;98000.00;;;-8.54;65.01
71126;BME280;58785;55.566;38.058;2023-02-21T01:33:39;97989.31;;;-8.64;65.68
71126;BME280;58785;55.566;38.058;2023-02-21T01:36:24;97998.50;;;-8.58;65.43
71126;BME280;58785;55.566;38.058;2023-02-21T01:39:10;98012.34;;;-8.59;64.89
71126;BME280;58785;55.566;38.058;2023-02-21T01:41:54;98012.56;;;-8.64;65.50
71126;BME280;58785;55.566;38.058;2023-02-21T01:44:43;97995.44;;;-8.82;64.99
71126;BME280;58785;55.566;38.058;2023-02-21T01:47:32;98009.59;;;-8.89;66.07
71126;BME280;58785;55.566;38.058;2023-02-21T01:50:22;98004.91;;;-8.99;64.96
71126;BME280;58785;55.566;38.058;2023-02-21T01:53:21;98012.56;;;-8.97;65.66
71126;BME280;58785;55.566;38.058;2023-02-21T01:56:07;97996.06;;;-9.10;65.22
71126;BME280;58785;55.566;38.058;2023-02-21T01:58:54;98010.47;;;-9.06;65.81
71126;BME280;58785;55.566;38.058;2023-02-21T02:04:48;98011.09;;;-9.18;65.82
71126;BME280;58785;55.566;38.058;2023-02-21T02:07:34;98000.19;;;-9.41;65.57
71126;BME280;58785;55.566;38.058;2023-02-21T02:10:19;98000.47;;;-9.47;65.79
71126;BME280;58785;55.566;38.058;2023-02-21T02:15:52;98009.78;;;-9.44;65.87
71126;BME280;58785;55.566;38.058;2023-02-21T02:18:54;98015.31;;;-9.52;65.99
71126;BME280;58785;55.566;38.058;2023-02-21T02:24:28;98015.63;;;-9.58;65.36
71126;BME280;58785;55.566;38.058;2023-02-21T02:27:32;97994.63;;;-9.68;65.54
71126;BME280;58785;55.566;38.058;2023-02-21T02:36:20;98005.25;;;-9.93;66.25
71126;BME280;58785;55.566;38.058;2023-02-21T02:38:58;97999.19;;;-10.09;65.61
71126;BME280;58785;55.566;38.058;2023-02-21T02:44:01;98002.66;;;-10.27;66.25
71126;BME280;58785;55.566;38.058;2023-02-21T02:46:29;97993.81;;;-10.40;66.55
71126;BME280;58785;55.566;38.058;2023-02-21T02:49:08;97990.91;;;-10.52;66.16
71126;BME280;58785;55.566;38.058;2023-02-21T02:51:36;97991.84;;;-10.54;65.86
71126;BME280;58785;55.566;38.058;2023-02-21T02:54:02;97985.44;;;-10.64;66.53
71126;BME280;58785;55.566;38.058;2023-02-21T02:56:28;97993.25;;;-10.66;66.37
71126;BME280;58785;55.566;38.058;2023-02-21T02:59:02;97999.56;;;-10.73;66.33
71126;BME280;58785;55.566;38.058;2023-02-21T03:04:31;98004.06;;;-10.97;66.47
71126;BME280;58785;55.566;38.058;2023-02-21T03:10:13;98001.72;;;-11.22;66.31
71126;BME280;58785;55.566;38.058;2023-02-21T03:12:50;98013.25;;;-11.31;66.04
71126;BME280;58785;55.566;38.058;2023-02-21T03:15:56;98003.25;;;-11.38;66.57
71126;BME280;58785;55.566;38.058;2023-02-21T03:18:35;98000.75;;;-11.40;66.38
71126;BME280;58785;55.566;38.058;2023-02-21T03:21:08;97982.03;;;-11.43;66.13
71126;BME280;58785;55.566;38.058;2023-02-21T03:23:36;97991.38;;;-11.41;66.28
71126;BME280;58785;55.566;38.058;2023-02-21T03:26:06;97994.19;;;-11.26;66.23
71126;BME280;58785;55.566;38.058;2023-02-21T03:28:34;97997.00;;;-11.33;65.84
71126;BME280;58785;55.566;38.058;2023-02-21T03:31:02;97996.97;;;-11.31;65.88
71126;BME280;58785;55.566;38.058;2023-02-21T03:33:30;97997.75;;;-11.29;65.77
71126;BME280;58785;55.566;38.058;2023-02-21T03:35:58;97995.22;;;-11.31;65.62
71126;BME280;58785;55.566;38.058;2023-02-21T03:38:27;97999.34;;;-11.26;66.25
71126;BME280;58785;55.566;38.058;2023-02-21T03:40:53;97994.19;;;-11.26;65.04
71126;BME280;58785;55.566;38.058;2023-02-21T03:43:18;98001.44;;;-11.16;65.56
71126;BME280;58785;55.566;38.058;2023-02-21T03:45:44;97992.66;;;-11.10;65.32
71126;BME280;58785;55.566;38.058;2023-02-21T03:48:09;97985.03;;;-11.13;64.96
71126;BME280;58785;55.566;38.058;2023-02-21T03:50:35;97993.25;;;-11.05;65.42
71126;BME280;58785;55.566;38.058;2023-02-21T03:53:01;97988.06;;;-11.04;65.60
71126;BME280;58785;55.566;38.058;2023-02-21T03:55:27;97994.03;;;-11.03;64.86
71126;BME280;58785;55.566;38.058;2023-02-21T03:57:52;97986.31;;;-11.03;65.10
71126;BME280;58785;55.566;38.058;2023-02-21T04:00:18;97989.59;;;-10.99;65.58
71126;BME280;58785;55.566;38.058;2023-02-21T04:02:44;97982.66;;;-10.97;65.44
71126;BME280;58785;55.566;38.058;2023-02-21T04:05:10;97981.56;;;-11.12;65.18
71126;BME280;58785;55.566;38.058;2023-02-21T04:07:36;97966.94;;;-11.31;65.65
71126;BME280;58785;55.566;38.058;2023-02-21T04:10:02;97985.44;;;-11.22;64.89
71126;BME280;58785;55.566;38.058;2023-02-21T04:12:29;97983.97;;;-11.28;65.57
71126;BME280;58785;55.566;38.058;2023-02-21T04:14:55;97986.72;;;-11.33;65.20
71126;BME280;58785;55.566;38.058;2023-02-21T04:17:23;97974.28;;;-11.42;65.52
71126;BME280;58785;55.566;38.058;2023-02-21T04:19:49;97975.94;;;-11.41;65.32
71126;BME280;58785;55.566;38.058;2023-02-21T04:22:15;97975.16;;;-11.43;65.13
71126;BME280;58785;55.566;38.058;2023-02-21T04:24:41;97988.09;;;-11.44;65.37
71126;BME280;58785;55.566;38.058;2023-02-21T04:27:07;97998.44;;;-11.46;65.17
71126;BME280;58785;55.566;38.058;2023-02-21T04:29:32;97996.06;;;-11.50;65.70
71126;BME280;58785;55.566;38.058;2023-02-21T04:31:58;98001.22;;;-11.50;65.50
71126;BME280;58785;55.566;38.058;2023-02-21T04:34:23;98004.78;;;-11.54;65.24
71126;BME280;58785;55.566;38.058;2023-02-21T04:36:49;97987.13;;;-11.62;65.16
71126;BME280;58785;55.566;38.058;2023-02-21T04:39:15;97997.22;;;-11.57;65.16
71126;BME280;58785;55.566;38.058;2023-02-21T04:41:40;98007.34;;;-11.54;65.48
71126;BME280;58785;55.566;38.058;2023-02-21T04:44:06;98003.97;;;-11.55;65.46
71126;BME280;58785;55.566;38.058;2023-02-21T04:46:32;98004.69;;;-11.51;65.25
71126;BME280;58785;55.566;38.058;2023-02-21T04:48:58;97997.91;;;-11.54;64.77
71126;BME280;58785;55.566;38.058;2023-02-21T04:51:24;98008.25;;;-11.55;64.79
71126;BME280;58785;55.566;38.058;2023-02-21T04:53:51;98011.44;;;-11.49;64.89
71126;BME280;58785;55.566;38.058;2023-02-21T04:56:18;98020.50;;;-11.40;65.36
71126;BME280;58785;55.566;38.058;2023-02-21T04:58:45;98022.69;;;-11.31;65.10
71126;BME280;58785;55.566;38.058;2023-02-21T05:01:13;98001.84;;;-11.45;63.95
71126;BME280;58785;55.566;38.058;2023-02-21T05:03:38;98000.63;;;-11.57;64.73
71126;BME280;58785;55.566;38.058;2023-02-21T05:06:04;98013.22;;;-11.51;65.14
71126;BME280;58785;55.566;38.058;2023-02-21T05:08:30;98019.50;;;-11.58;64.52
71126;BME280;58785;55.566;38.058;2023-02-21T05:10:56;98005.00;;;-11.59;64.52
71126;BME280;58785;55.566;38.058;2023-02-21T05:13:22;98016.09;;;-11.58;64.22
71126;BME280;58785;55.566;38.058;2023-02-21T05:15:48;98000.38;;;-11.71;64.62
71126;BME280;58785;55.566;38.058;2023-02-21T05:18:14;98013.44;;;-11.77;64.73
71126;BME280;58785;55.566;38.058;2023-02-21T05:20:50;98012.88;;;-11.84;64.61
71126;BME280;58785;55.566;38.058;2023-02-21T05:23:17;98008.72;;;-11.86;64.84
71126;BME280;58785;55.566;38.058;2023-02-21T05:26:03;98020.66;;;-11.85;64.67
71126;BME280;58785;55.566;38.058;2023-02-21T05:28:29;98014.03;;;-11.91;64.54
71126;BME280;58785;55.566;38.058;2023-02-21T05:30:55;98018.28;;;-11.90;64.85
71126;BME280;58785;55.566;38.058;2023-02-21T05:33:21;98019.28;;;-11.94;64.94
71126;BME280;58785;55.566;38.058;2023-02-21T05:35:48;98010.81;;;-11.96;64.38
71126;BME280;58785;55.566;38.058;2023-02-21T05:38:15;98016.72;;;-11.94;64.71
71126;BME280;58785;55.566;38.058;2023-02-21T05:40:40;98010.19;;;-12.03;64.49
71126;BME280;58785;55.566;38.058;2023-02-21T05:43:06;98019.47;;;-11.99;64.56
71126;BME280;58785;55.566;38.058;2023-02-21T05:45:32;98022.94;;;-12.00;64.19
71126;BME280;58785;55.566;38.058;2023-02-21T05:47:57;98015.19;;;-12.20;64.42
71126;BME280;58785;55.566;38.058;2023-02-21T05:50:27;98020.13;;;-12.15;64.70
71126;BME280;58785;55.566;38.058;2023-02-21T05:52:53;98025.31;;;-12.17;64.15
71126;BME280;58785;55.566;38.058;2023-02-21T05:55:19;98020.06;;;-12.14;64.44
71126;BME280;58785;55.566;38.058;2023-02-21T05:57:45;98021.78;;;-12.14;64.39
71126;BME280;58785;55.566;38.058;2023-02-21T06:00:23;98023.66;;;-12.18;63.98
71126;BME280;58785;55.566;38.058;2023-02-21T06:02:49;98030.03;;;-12.28;63.76
71126;BME280;58785;55.566;38.058;2023-02-21T06:05:17;98008.72;;;-12.30;63.68
71126;BME280;58785;55.566;38.058;2023-02-21T06:07:43;98009.50;;;-12.28;63.88
71126;BME280;58785;55.566;38.058;2023-02-21T06:10:09;98016.28;;;-12.27;63.92
71126;BME280;58785;55.566;38.058;2023-02-21T06:12:34;98019.53;;;-12.22;63.79
71126;BME280;58785;55.566;38.058;2023-02-21T06:15:01;98028.78;;;-12.18;63.68
71126;BME280;58785;55.566;38.058;2023-02-21T06:17:32;98024.84;;;-12.05;63.86
71126;BME280;58785;55.566;38.058;2023-02-21T06:19:58;98033.94;;;-11.96;63.26
71126;BME280;58785;55.566;38.058;2023-02-21T06:22:24;98024.53;;;-11.97;63.30
71126;BME280;58785;55.566;38.058;2023-02-21T06:24:49;98026.16;;;-11.95;62.85
71126;BME280;58785;55.566;38.058;2023-02-21T06:27:15;98029.50;;;-11.93;63.58
71126;BME280;58785;55.566;38.058;2023-02-21T06:29:41;98027.00;;;-11.94;63.26
71126;BME280;58785;55.566;38.058;2023-02-21T06:32:06;98023.72;;;-11.77;63.50
71126;BME280;58785;55.566;38.058;2023-02-21T06:34:32;98017.31;;;-11.67;62.66
71126;BME280;58785;55.566;38.058;2023-02-21T06:36:58;98015.34;;;-11.61;63.14
71126;BME280;58785;55.566;38.058;2023-02-21T06:39:24;98024.06;;;-11.44;62.86
71126;BME280;58785;55.566;38.058;2023-02-21T06:41:50;98025.50;;;-11.37;62.54
71126;BME280;58785;55.566;38.058;2023-02-21T06:44:16;98015.66;;;-11.27;62.26
71126;BME280;58785;55.566;38.058;2023-02-21T06:46:42;98017.47;;;-11.09;62.20
71126;BME280;58785;55.566;38.058;2023-02-21T06:49:09;98014.56;;;-11.02;62.00
71126;BME280;58785;55.566;38.058;2023-02-21T06:51:39;98026.38;;;-10.97;61.87
71126;BME280;58785;55.566;38.058;2023-02-21T06:54:06;98016.72;;;-10.92;61.67
71126;BME280;58785;55.566;38.058;2023-02-21T06:56:35;98020.44;;;-10.79;61.59
71126;BME280;58785;55.566;38.058;2023-02-21T06:59:01;98025.94;;;-10.68;61.15
71126;BME280;58785;55.566;38.058;2023-02-21T07:01:28;98014.69;;;-10.65;61.62
71126;BME280;58785;55.566;38.058;2023-02-21T07:03:55;98009.88;;;-10.54;60.59
71126;BME280;58785;55.566;38.058;2023-02-21T07:06:21;98031.06;;;-10.29;61.10
71126;BME280;58785;55.566;38.058;2023-02-21T07:08:47;98019.84;;;-10.28;60.67
71126;BME280;58785;55.566;38.058;2023-02-21T07:11:13;98018.97;;;-10.09;60.82
71126;BME280;58785;55.566;38.058;2023-02-21T07:13:40;98033.78;;;-9.96;61.38
71126;BME280;58785;55.566;38.058;2023-02-21T07:16:05;98026.38;;;-9.85;60.42
71126;BME280;58785;55.566;38.058;2023-02-21T07:18:32;98025.09;;;-9.76;59.77
71126;BME280;58785;55.566;38.058;2023-02-21T07:20:58;98035.38;;;-9.40;60.35
71126;BME280;58785;55.566;38.058;2023-02-21T07:23:24;98028.03;;;-9.30;59.88
71126;BME280;58785;55.566;38.058;2023-02-21T07:25:49;98033.94;;;-9.28;59.31
71126;BME280;58785;55.566;38.058;2023-02-21T07:28:15;98044.19;;;-9.27;58.53
71126;BME280;58785;55.566;38.058;2023-02-21T07:30:41;98032.41;;;-9.32;59.69
71126;BME280;58785;55.566;38.058;2023-02-21T07:33:06;98034.59;;;-9.24;59.24
71126;BME280;58785;55.566;38.058;2023-02-21T07:35:32;98030.13;;;-9.04;58.89
71126;BME280;58785;55.566;38.058;2023-02-21T07:37:58;98037.47;;;-8.79;58.35
71126;BME280;58785;55.566;38.058;2023-02-21T07:40:23;98027.63;;;-8.72;58.19
71126;BME280;58785;55.566;38.058;2023-02-21T07:42:49;98043.34;;;-8.59;58.35
71126;BME280;58785;55.566;38.058;2023-02-21T07:45:15;98047.59;;;-8.43;58.24
71126;BME280;58785;55.566;38.058;2023-02-21T07:47:41;98039.94;;;-8.44;57.28
71126;BME280;58785;55.566;38.058;2023-02-21T07:50:11;98053.47;;;-8.39;57.88
71126;BME280;58785;55.566;38.058;2023-02-21T07:52:37;98053.28;;;-8.36;57.51
71126;BME280;58785;55.566;38.058;2023-02-21T07:55:03;98035.91;;;-8.34;57.21
71126;BME280;58785;55.566;38.058;2023-02-21T07:57:29;98035.78;;;-8.31;57.32
71126;BME280;58785;55.566;38.058;2023-02-21T07:59:54;98039.94;;;-8.28;57.94
71126;BME280;58785;55.566;38.058;2023-02-21T08:02:20;98047.88;;;-8.31;57.19
71126;BME280;58785;55.566;38.058;2023-02-21T08:04:49;98035.84;;;-8.48;58.20
71126;BME280;58785;55.566;38.058;2023-02-21T08:07:15;98034.34;;;-8.52;58.10
71126;BME280;58785;55.566;38.058;2023-02-21T08:09:41;98038.41;;;-8.32;57.52
71126;BME280;58785;55.566;38.058;2023-02-21T08:12:07;98036.97;;;-8.36;57.24
71126;BME280;58785;55.566;38.058;2023-02-21T08:14:33;98037.69;;;-8.34;57.73
71126;BME280;58785;55.566;38.058;2023-02-21T08:16:58;98046.19;;;-8.17;56.73
71126;BME280;58785;55.566;38.058;2023-02-21T08:19:24;98033.78;;;-8.10;56.69
71126;BME280;58785;55.566;38.058;2023-02-21T08:21:50;98046.97;;;-7.99;56.83
71126;BME280;58785;55.566;38.058;2023-02-21T08:24:17;98042.13;;;-8.05;56.40
71126;BME280;58785;55.566;38.058;2023-02-21T08:26:43;98047.78;;;-8.14;56.86
71126;BME280;58785;55.566;38.058;2023-02-21T08:29:11;98038.09;;;-8.26;56.08
71126;BME280;58785;55.566;38.058;2023-02-21T08:31:38;98033.50;;;-8.53;56.39
71126;BME280;58785;55.566;38.058;2023-02-21T08:34:05;98055.03;;;-8.36;56.36
71126;BME280;58785;55.566;38.058;2023-02-21T08:36:36;98048.88;;;-8.18;57.30
71126;BME280;58785;55.566;38.058;2023-02-21T08:39:03;98044.53;;;-8.02;56.36
71126;BME280;58785;55.566;38.058;2023-02-21T08:41:41;98042.22;;;-7.91;56.20
71126;BME280;58785;55.566;38.058;2023-02-21T08:44:08;98035.69;;;-7.82;55.62
71126;BME280;58785;55.566;38.058;2023-02-21T08:46:34;98031.59;;;-7.70;55.71
71126;BME280;58785;55.566;38.058;2023-02-21T08:49:01;98041.06;;;-7.55;55.76
71126;BME280;58785;55.566;38.058;2023-02-21T08:51:29;98035.75;;;-7.68;55.50
71126;BME280;58785;55.566;38.058;2023-02-21T08:53:55;98033.78;;;-7.78;56.48
71126;BME280;58785;55.566;38.058;2023-02-21T08:56:22;98025.31;;;-7.82;56.72
71126;BME280;58785;55.566;38.058;2023-02-21T08:58:48;98030.22;;;-7.62;55.80
71126;BME280;58785;55.566;38.058;2023-02-21T09:01:13;98035.91;;;-7.55;56.22
71126;BME280;58785;55.566;38.058;2023-02-21T09:03:39;98028.78;;;-7.52;55.66
71126;BME280;58785;55.566;38.058;2023-02-21T09:06:06;98040.56;;;-7.46;55.71
71126;BME280;58785;55.566;38.058;2023-02-21T09:08:32;98040.66;;;-7.47;55.89
71126;BME280;58785;55.566;38.058;2023-02-21T09:10:58;98041.13;;;-7.71;56.37
71126;BME280;58785;55.566;38.058;2023-02-21T09:13:26;98042.75;;;-7.54;55.57
71126;BME280;58785;55.566;38.058;2023-02-21T09:15:52;98043.94;;;-7.60;55.99
71126;BME280;58785;55.566;38.058;2023-02-21T09:18:18;98043.16;;;-7.62;56.12
71126;BME280;58785;55.566;38.058;2023-02-21T09:20:43;98039.84;;;-7.64;55.79
71126;BME280;58785;55.566;38.058;2023-02-21T09:23:10;98040.34;;;-7.57;56.28
71126;BME280;58785;55.566;38.058;2023-02-21T09:25:36;98046.00;;;-7.50;56.34
71126;BME280;58785;55.566;38.058;2023-02-21T09:28:02;98052.38;;;-7.26;56.18
71126;BME280;58785;55.566;38.058;2023-02-21T09:30:28;98041.88;;;-7.39;55.97
71126;BME280;58785;55.566;38.058;2023-02-21T09:32:55;98041.81;;;-7.53;56.45
71126;BME280;58785;55.566;38.058;2023-02-21T09:35:21;98047.81;;;-7.53;56.35
71126;BME280;58785;55.566;38.058;2023-02-21T09:37:47;98036.25;;;-7.61;56.09
71126;BME280;58785;55.566;38.058;2023-02-21T09:42:41;98043.94;;;-7.60;56.59
71126;BME280;58785;55.566;38.058;2023-02-21T09:45:13;98029.75;;;-7.68;56.82
71126;BME280;58785;55.566;38.058;2023-02-21T09:47:40;98035.28;;;-7.44;56.76
71126;BME280;58785;55.566;38.058;2023-02-21T09:50:12;98034.56;;;-7.46;56.77
71126;BME280;58785;55.566;38.058;2023-02-21T09:52:39;98028.25;;;-7.42;56.46
71126;BME280;58785;55.566;38.058;2023-02-21T09:57:53;98032.59;;;-7.43;56.39
71126;BME280;58785;55.566;38.058;2023-02-21T10:00:33;98036.91;;;-7.58;55.72
71126;BME280;58785;55.566;38.058;2023-02-21T10:12:17;98045.59;;;-7.59;55.59
71126;BME280;58785;55.566;38.058;2023-02-21T10:19:54;98061.47;;;-7.96;56.39
71126;BME280;58785;55.566;38.058;2023-02-21T10:22:27;98059.22;;;-7.87;57.04
71126;BME280;58785;55.566;38.058;2023-02-21T10:24:55;98054.09;;;-7.72;56.14
71126;BME280;58785;55.566;38.058;2023-02-21T10:27:26;98052.63;;;-7.76;56.15
71126;BME280;58785;55.566;38.058;2023-02-21T10:30:02;98060.56;;;-7.79;57.02
71126;BME280;58785;55.566;38.058;2023-02-21T10:32:30;98065.63;;;-7.78;56.61
71126;BME280;58785;55.566;38.058;2023-02-21T10:34:58;98058.53;;;-7.74;56.31
71126;BME280;58785;55.566;38.058;2023-02-21T10:37:42;98065.63;;;-7.62;55.97
71126;BME280;58785;55.566;38.058;2023-02-21T10:42:49;98055.75;;;-7.56;55.99
71126;BME280;58785;55.566;38.058;2023-02-21T10:45:19;98072.53;;;-7.63;55.68
71126;BME280;58785;55.566;38.058;2023-02-21T10:47:53;98079.00;;;-7.70;56.50
71126;BME280;58785;55.566;38.058;2023-02-21T10:50:42;98075.16;;;-7.78;56.72
71126;BME280;58785;55.566;38.058;2023-02-21T10:53:22;98078.97;;;-7.86;56.49
71126;BME280;58785;55.566;38.058;2023-02-21T10:56:22;98069.56;;;-7.71;55.97
71126;BME280;58785;55.566;38.058;2023-02-21T10:59:00;98071.47;;;-7.59;56.00
71126;BME280;58785;55.566;38.058;2023-02-21T11:01:34;98076.75;;;-7.60;55.93
71126;BME280;58785;55.566;38.058;2023-02-21T11:04:05;98082.66;;;-7.74;56.72
71126;BME280;58785;55.566;38.058;2023-02-21T11:08:58;98071.00;;;-7.81;56.42
71126;BME280;58785;55.566;38.058;2023-02-21T11:11:36;98084.25;;;-7.87;56.60
71126;BME280;58785;55.566;38.058;2023-02-21T11:14:21;98082.66;;;-7.74;56.42
71126;BME280;58785;55.566;38.058;2023-02-21T11:17:17;98099.19;;;-7.61;56.43
71126;BME280;58785;55.566;38.058;2023-02-21T11:19:46;98076.41;;;-7.70;56.60
71126;BME280;58785;55.566;38.058;2023-02-21T11:22:14;98098.41;;;-7.63;57.16
71126;BME280;58785;55.566;38.058;2023-02-21T11:24:52;98079.22;;;-7.74;57.11
71126;BME280;58785;55.566;38.058;2023-02-21T11:27:18;98103.19;;;-7.71;57.25
71126;BME280;58785;55.566;38.058;2023-02-21T11:29:46;98108.25;;;-7.54;56.71
71126;BME280;58785;55.566;38.058;2023-02-21T11:32:25;98108.13;;;-7.50;56.04
71126;BME280;58785;55.566;38.058;2023-02-21T11:35:03;98095.31;;;-7.54;56.22
71126;BME280;58785;55.566;38.058;2023-02-21T11:37:30;98095.56;;;-7.42;56.34
71126;BME280;58785;55.566;38.058;2023-02-21T11:39:57;98102.09;;;-7.51;57.18
71126;BME280;58785;55.566;38.058;2023-02-21T11:42:30;98107.97;;;-7.33;56.90
71126;BME280;58785;55.566;38.058;2023-02-21T11:45:28;98110.84;;;-7.38;57.07
71126;BME280;58785;55.566;38.058;2023-02-21T11:48:04;98121.88;;;-7.50;56.60
71126;BME280;58785;55.566;38.058;2023-02-21T11:50:37;98118.22;;;-7.77;57.13
71126;BME280;58785;55.566;38.058;2023-02-21T11:53:24;98118.53;;;-7.68;57.78
71126;BME280;58785;55.566;38.058;2023-02-21T12:13:40;98136.75;;;-7.69;57.60
71126;BME280;58785;55.566;38.058;2023-02-21T12:41:32;98147.06;;;-8.01;58.67
71126;BME280;58785;55.566;38.058;2023-02-21T12:49:28;98181.22;;;-7.63;58.17
71126;BME280;58785;55.566;38.058;2023-02-21T12:52:01;98187.22;;;-7.62;57.93
71126;BME280;58785;55.566;38.058;2023-02-21T12:54:50;98176.03;;;-7.78;58.44
71126;BME280;58785;55.566;38.058;2023-02-21T12:57:59;98194.97;;;-7.78;58.65
71126;BME280;58785;55.566;38.058;2023-02-21T13:00:35;98177.75;;;-7.95;57.88
71126;BME280;58785;55.566;38.058;2023-02-21T13:05:43;98197.78;;;-7.98;58.04
71126;BME280;58785;55.566;38.058;2023-02-21T13:08:18;98187.63;;;-7.86;57.88
71126;BME280;58785;55.566;38.058;2023-02-21T13:13:37;98201.38;;;-7.85;58.08
71126;BME280;58785;55.566;38.058;2023-02-21T13:16:05;98206.38;;;-7.82;57.62
71126;BME280;58785;55.566;38.058;2023-02-21T13:24:23;98216.34;;;-8.07;58.93
71126;BME280;58785;55.566;38.058;2023-02-21T13:29:30;98225.84;;;-8.08;58.42
71126;BME280;58785;55.566;38.058;2023-02-21T13:32:09;98222.03;;;-8.01;57.87
71126;BME280;58785;55.566;38.058;2023-02-21T13:34:58;98235.03;;;-8.02;58.20
71126;BME280;58785;55.566;38.058;2023-02-21T13:37:28;98240.53;;;-8.08;58.29
71126;BME280;58785;55.566;38.058;2023-02-21T13:40:06;98222.06;;;-8.18;58.89
71126;BME280;58785;55.566;38.058;2023-02-21T13:42:41;98242.66;;;-8.17;57.82
71126;BME280;58785;55.566;38.058;2023-02-21T13:45:16;98235.19;;;-8.23;58.28
71126;BME280;58785;55.566;38.058;2023-02-21T13:58:32;98264.94;;;-8.66;59.11
71126;BME280;58785;55.566;38.058;2023-02-21T14:01:22;98272.63;;;-8.64;59.88
71126;BME280;58785;55.566;38.058;2023-02-21T14:07:07;98278.66;;;-8.83;59.99
71126;BME280;58785;55.566;38.058;2023-02-21T14:09:35;98277.50;;;-8.94;59.73
71126;BME280;58785;55.566;38.058;2023-02-21T14:12:04;98289.09;;;-9.03;59.98
71126;BME280;58785;55.566;38.058;2023-02-21T14:14:33;98299.13;;;-8.97;60.15
71126;BME280;58785;55.566;38.058;2023-02-21T14:22:13;98307.38;;;-9.08;59.61
71126;BME280;58785;55.566;38.058;2023-02-21T14:24:49;98324.63;;;-9.08;59.52
71126;BME280;58785;55.566;38.058;2023-02-21T14:30:20;98308.44;;;-9.31;60.54
71126;BME280;58785;55.566;38.058;2023-02-21T14:32:34;98339.44;;;-9.32;60.41
71126;BME280;58785;55.566;38.058;2023-02-21T14:35:12;98338.97;;;-9.40;59.80
71126;BME280;58785;55.566;38.058;2023-02-21T14:37:44;98347.63;;;-9.41;59.82
71126;BME280;58785;55.566;38.058;2023-02-21T15:10:42;98417.03;;;-9.98;61.37
71126;BME280;58785;55.566;38.058;2023-02-21T15:13:33;98417.34;;;-10.05;61.28
71126;BME280;58785;55.566;38.058;2023-02-21T15:16:07;98411.59;;;-10.12;61.58
71126;BME280;58785;55.566;38.058;2023-02-21T15:18:41;98428.56;;;-10.06;62.05
71126;BME280;58785;55.566;38.058;2023-02-21T15:21:21;98428.41;;;-10.02;61.83
71126;BME280;58785;55.566;38.058;2023-02-21T15:23:58;98437.66;;;-9.98;61.04
71126;BME280;58785;55.566;38.058;2023-02-21T15:26:29;98426.06;;;-10.08;61.71
71126;BME280;58785;55.566;38.058;2023-02-21T15:29:35;98453.25;;;-10.01;61.29
71126;BME280;58785;55.566;38.058;2023-02-21T15:31:55;98444.03;;;-10.06;61.55
71126;BME280;58785;55.566;38.058;2023-02-21T15:34:42;98455.88;;;-10.02;61.05
71126;BME280;58785;55.566;38.058;2023-02-21T15:37:23;98452.44;;;-10.01;61.49
71126;BME280;58785;55.566;38.058;2023-02-21T15:40:01;98447.38;;;-10.04;61.56
71126;BME280;58785;55.566;38.058;2023-02-21T15:42:30;98458.72;;;-10.08;62.73
71126;BME280;58785;55.566;38.058;2023-02-21T15:45:00;98463.81;;;-10.07;62.23
71126;BME280;58785;55.566;38.058;2023-02-21T15:47:29;98462.06;;;-10.06;62.24
71126;BME280;58785;55.566;38.058;2023-02-21T15:50:08;98470.63;;;-10.06;62.54
71126;BME280;58785;55.566;38.058;2023-02-21T15:52:40;98484.34;;;-10.05;62.71
71126;BME280;58785;55.566;38.058;2023-02-21T15:57:46;98491.09;;;-10.01;62.75